createdAt,value
2018-05-07T00:00:05.019Z,49.4
2018-05-07T00:00:54.775Z,49.4
2018-05-07T00:01:45.095Z,49.4
2018-05-07T00:02:34.883Z,49.4
2018-05-07T00:03:25.330Z,49.4
2018-05-07T00:04:14.744Z,49.4
2018-05-07T00:05:05.375Z,49.4
2018-05-07T00:05:56.297Z,49.4
2018-05-07T00:06:45.497Z,49.4
2018-05-07T00:07:35.429Z,49.4
2018-05-07T00:08:25.325Z,49.4
2018-05-07T00:09:16.115Z,49.4
2018-05-07T00:10:05.510Z,49.3
2018-05-07T00:10:55.838Z,49.3
2018-05-07T00:11:46.599Z,49.3
2018-05-07T00:12:36.014Z,49.3
2018-05-07T00:13:25.756Z,49.3
2018-05-07T00:14:15.842Z,49.3
2018-05-07T00:15:06.120Z,49.3
2018-05-07T00:15:55.623Z,49.3
2018-05-07T00:16:45.990Z,49.3
2018-05-07T00:17:35.759Z,49.3
2018-05-07T00:18:26.414Z,49.3
2018-05-07T00:19:16.455Z,49.3
2018-05-07T00:20:06.249Z,49.3
2018-05-07T00:20:56.294Z,49.2
2018-05-07T00:21:46.096Z,49.2
2018-05-07T00:22:36.031Z,49.2
2018-05-07T00:23:26.789Z,49.2
2018-05-07T00:24:16.569Z,49.2
2018-05-07T00:25:06.359Z,49.2
2018-05-07T00:25:56.701Z,49.1
2018-05-07T00:26:46.789Z,49.1
2018-05-07T00:27:36.902Z,49.1
2018-05-07T00:28:27.248Z,49.1
2018-05-07T00:29:17.226Z,49.1
2018-05-07T00:30:06.548Z,49.1
2018-05-07T00:30:56.840Z,49.1
2018-05-07T00:31:47.216Z,49.1
2018-05-07T00:32:37.229Z,49.1
2018-05-07T00:33:27.017Z,49.1
2018-05-07T00:34:17.131Z,49.1
2018-05-07T00:35:07.593Z,49.1
2018-05-07T00:35:57.744Z,49.1
2018-05-07T00:36:47.263Z,49.1
2018-05-07T00:37:37.880Z,49
2018-05-07T00:38:27.457Z,49
2018-05-07T00:39:18.013Z,49
2018-05-07T00:40:07.248Z,49
2018-05-07T00:40:58.136Z,49
2018-05-07T00:41:48.213Z,49
2018-05-07T00:42:38.014Z,48.9
2018-05-07T00:43:27.851Z,48.9
2018-05-07T00:44:18.385Z,48.9
2018-05-07T00:45:08.479Z,48.9
2018-05-07T00:45:57.667Z,48.9
2018-05-07T00:46:48.593Z,48.9
2018-05-07T00:47:38.660Z,48.9
2018-05-07T00:48:28.128Z,48.9
2018-05-07T00:49:18.743Z,48.9
2018-05-07T00:50:08.805Z,48.9
2018-05-07T00:50:58.663Z,48.9
2018-05-07T00:51:48.401Z,48.9
2018-05-07T00:52:39.026Z,48.9
2018-05-07T00:53:29.156Z,48.8
2018-05-07T00:54:18.866Z,48.8
2018-05-07T00:55:08.394Z,48.8
2018-05-07T00:55:59.014Z,48.8
2018-05-07T00:56:49.358Z,48.8
2018-05-07T00:57:39.428Z,48.8
2018-05-07T00:58:29.494Z,48.8
2018-05-07T00:59:19.264Z,48.8
2018-05-07T01:00:08.771Z,48.8
2018-05-07T01:00:59.429Z,48.8
2018-05-07T01:01:49.174Z,48.8
2018-05-07T01:02:39.801Z,48.8
2018-05-07T01:03:29.582Z,48.8
2018-05-07T01:04:19.633Z,48.8
2018-05-07T01:05:09.436Z,48.7
2018-05-07T01:05:59.798Z,48.7
2018-05-07T01:06:49.346Z,48.7
2018-05-07T01:07:40.183Z,48.7
2018-05-07T01:08:30.276Z,48.7
2018-05-07T01:09:20.039Z,48.7
2018-05-07T01:10:09.826Z,48.7
2018-05-07T01:10:59.888Z,48.6
2018-05-07T01:11:50.241Z,48.6
2018-05-07T01:12:40.726Z,48.6
2018-05-07T01:13:30.645Z,48.6
2018-05-07T01:14:20.424Z,48.6
2018-05-07T01:15:10.495Z,48.6
2018-05-07T01:16:00.811Z,48.6
2018-05-07T01:16:50.909Z,48.6
2018-05-07T01:17:40.391Z,48.6
2018-05-07T01:18:30.730Z,48.6
2018-05-07T01:19:20.832Z,48.6
2018-05-07T01:20:10.599Z,48.6
2018-05-07T01:21:01.195Z,48.6
2018-05-07T01:21:50.764Z,48.5
2018-05-07T01:22:41.337Z,48.5
2018-05-07T01:23:31.397Z,48.5
2018-05-07T01:24:21.290Z,48.5
2018-05-07T01:25:11.543Z,48.5
2018-05-07T01:26:01.327Z,48.5
2018-05-07T01:26:51.105Z,48.4
2018-05-07T01:27:41.728Z,48.4
2018-05-07T01:28:31.830Z,48.4
2018-05-07T01:29:21.871Z,48.4
2018-05-07T01:30:11.674Z,48.4
2018-05-07T01:31:01.455Z,48.4
2018-05-07T01:31:51.213Z,48.4
2018-05-07T01:32:41.867Z,48.4
2018-05-07T01:33:32.251Z,48.4
2018-05-07T01:34:21.693Z,48.4
2018-05-07T01:35:12.334Z,48.4
2018-05-07T01:36:02.121Z,48.4
2018-05-07T01:36:52.191Z,48.3
2018-05-07T01:37:42.232Z,48.4
2018-05-07T01:38:32.358Z,48.3
2018-05-07T01:39:22.370Z,48.3
2018-05-07T01:40:12.702Z,48.3
2018-05-07T01:41:02.762Z,48.3
2018-05-07T01:41:52.849Z,48.3
2018-05-07T01:42:42.918Z,48.3
2018-05-07T01:43:32.439Z,48.3
2018-05-07T01:44:22.528Z,48.3
2018-05-07T01:45:13.066Z,48.3
2018-05-07T01:46:03.138Z,48.3
2018-05-07T01:46:52.936Z,48.3
2018-05-07T01:47:42.981Z,48.3
2018-05-07T01:48:33.367Z,48.3
2018-05-07T01:49:23.418Z,48.2
2018-05-07T01:50:13.503Z,48.2
2018-05-07T01:51:03.627Z,48.2
2018-05-07T01:51:53.664Z,48.2
2018-05-07T01:52:43.679Z,48.2
2018-05-07T01:53:33.476Z,48.1
2018-05-07T01:54:23.798Z,48.1
2018-05-07T01:55:13.333Z,48.1
2018-05-07T01:56:03.360Z,48.1
2018-05-07T01:56:53.723Z,48.1
2018-05-07T01:57:44.081Z,48.1
2018-05-07T01:58:33.849Z,48.1
2018-05-07T01:59:23.915Z,48.1
2018-05-07T02:00:13.668Z,48.1
2018-05-07T02:01:04.032Z,48.1
2018-05-07T02:01:54.104Z,48.1
2018-05-07T02:02:44.187Z,48.1
2018-05-07T02:03:33.983Z,48.1
2018-05-07T02:04:24.308Z,48.1
2018-05-07T07:27:02.434Z,42.7
2018-05-07T07:27:52.643Z,42.7
2018-05-07T07:28:42.837Z,42.7
2018-05-07T07:29:32.892Z,42.6
2018-05-07T07:30:22.947Z,42.6
2018-05-07T07:31:13.028Z,42.6
2018-05-07T07:32:03.048Z,42.6
2018-05-07T07:32:53.170Z,42.6
2018-05-07T07:33:43.364Z,42.6
2018-05-07T07:34:32.990Z,42.6
2018-05-07T07:35:23.369Z,42.6
2018-05-07T07:36:13.381Z,42.6
2018-05-07T07:37:03.476Z,42.6
2018-05-07T07:37:53.504Z,42.6
2018-05-07T07:38:43.068Z,42.6
2018-05-07T07:39:33.924Z,42.5
2018-05-07T07:40:23.723Z,42.5
2018-05-07T07:41:13.227Z,42.5
2018-05-07T07:42:03.585Z,42.4
2018-05-07T07:42:53.386Z,42.4
2018-05-07T07:43:43.701Z,42.4
2018-05-07T07:44:34.059Z,42.4
2018-05-07T07:45:23.560Z,42.4
2018-05-07T07:46:14.157Z,42.4
2018-05-07T07:47:04.774Z,42.4
2018-05-07T07:47:54.283Z,42.4
2018-05-07T07:48:44.105Z,42.4
2018-05-07T07:49:34.467Z,42.4
2018-05-07T07:50:23.962Z,42.3
2018-05-07T07:51:14.011Z,42.3
2018-05-07T07:52:03.906Z,42.3
2018-05-07T07:52:54.698Z,42.3
2018-05-07T07:53:45.419Z,42.3
2018-05-07T07:54:34.271Z,42.3
2018-05-07T07:55:24.309Z,42.3
2018-05-07T07:56:14.957Z,42.3
2018-05-07T07:57:04.466Z,42.3
2018-05-07T07:57:54.506Z,42.3
2018-05-07T07:58:44.317Z,42.3
2018-05-07T07:59:34.679Z,42.2
2018-05-07T08:00:24.719Z,42.2
2018-05-07T08:01:15.383Z,42.2
2018-05-07T08:02:05.467Z,42.2
2018-05-07T08:02:54.833Z,42.1
2018-05-07T08:03:45.266Z,42.1
2018-05-07T08:04:35.080Z,42.1
2018-05-07T08:05:25.195Z,42.1
2018-05-07T08:06:15.193Z,42.1
2018-05-07T08:07:05.248Z,42.1
2018-05-07T08:07:55.020Z,42.1
2018-05-07T08:08:45.072Z,42.1
2018-05-07T08:09:36.018Z,42.1
2018-05-07T08:10:26.116Z,42.1
2018-05-07T08:11:15.830Z,42.1
2018-05-07T08:12:05.398Z,42.1
2018-05-07T08:12:56.058Z,42
2018-05-07T08:13:46.038Z,42
2018-05-07T08:14:35.815Z,42
2018-05-07T08:15:26.131Z,42
2018-05-07T08:16:16.514Z,41.9
2018-05-07T08:17:06.644Z,41.9
2018-05-07T08:17:56.639Z,41.9
2018-05-07T08:18:45.858Z,41.9
2018-05-07T08:19:36.725Z,41.9
2018-05-07T08:20:26.843Z,41.9
2018-05-07T08:21:16.414Z,41.9
2018-05-07T08:22:06.473Z,41.9
2018-05-07T08:22:57.056Z,41.9
2018-05-07T08:23:47.113Z,41.9
2018-05-07T08:24:37.172Z,41.9
2018-05-07T08:25:27.217Z,41.9
2018-05-07T08:26:16.437Z,41.8
2018-05-07T08:27:06.799Z,41.8
2018-05-07T08:27:57.439Z,41.8
2018-05-07T08:28:47.493Z,41.8
2018-05-07T08:29:37.252Z,41.8
2018-05-07T08:30:28.068Z,41.8
2018-05-07T08:31:17.401Z,41.8
2018-05-07T08:32:07.475Z,41.8
2018-05-07T08:32:57.887Z,41.8
2018-05-07T08:33:47.626Z,41.8
2018-05-07T08:34:37.456Z,41.7
2018-05-07T08:35:27.979Z,41.7
2018-05-07T08:36:17.819Z,41.7
2018-05-07T08:37:07.843Z,41.7
2018-05-07T08:37:58.328Z,41.7
2018-05-07T08:38:48.266Z,41.7
2018-05-07T08:39:38.378Z,41.6
2018-05-07T08:40:27.841Z,41.6
2018-05-07T08:41:18.450Z,41.6
2018-05-07T08:42:07.958Z,41.6
2018-05-07T08:42:58.596Z,41.6
2018-05-07T08:43:48.659Z,41.6
2018-05-07T08:44:38.698Z,41.6
2018-05-07T08:45:28.496Z,41.6
2018-05-07T08:46:18.269Z,41.6
2018-05-07T08:47:08.905Z,41.6
2018-05-07T08:47:59.004Z,41.5
2018-05-07T08:48:48.172Z,41.5
2018-05-07T08:49:39.200Z,41.5
2018-05-07T08:50:28.656Z,41.5
2018-05-07T08:51:19.217Z,41.5
2018-05-07T08:52:09.025Z,41.5
2018-05-07T08:52:59.848Z,41.5
2018-05-07T08:53:49.417Z,41.4
2018-05-07T08:54:39.502Z,41.4
2018-05-07T08:55:29.553Z,41.4
2018-05-07T08:56:19.629Z,41.4
2018-05-07T08:57:09.161Z,41.4
2018-05-07T08:57:59.480Z,41.4
2018-05-07T08:58:49.529Z,41.4
2018-05-07T08:59:39.888Z,41.4
2018-05-07T09:00:29.677Z,41.4
2018-05-07T09:01:20.038Z,41.4
2018-05-07T09:02:10.630Z,41.4
2018-05-07T09:03:00.162Z,41.3
2018-05-07T09:03:49.747Z,41.3
2018-05-07T09:04:40.313Z,41.3
2018-05-07T09:05:30.349Z,41.3
2018-05-07T09:06:19.273Z,41.3
2018-05-07T09:07:09.922Z,41.3
2018-05-07T09:08:00.591Z,41.3
2018-05-07T09:08:50.312Z,41.3
2018-05-07T09:09:40.678Z,41.3
2018-05-07T09:10:30.730Z,41.3
2018-05-07T09:11:20.826Z,41.3
2018-05-07T09:12:10.619Z,41.3
2018-05-07T09:13:00.382Z,41.2
2018-05-07T09:13:50.452Z,41.2
2018-05-07T09:14:39.964Z,41.2
2018-05-07T09:15:30.592Z,41.2
2018-05-07T09:16:20.731Z,41.2
2018-05-07T09:17:11.284Z,41.2
2018-05-07T09:18:01.326Z,41.1
2018-05-07T09:18:51.381Z,41.1
2018-05-07T09:19:41.471Z,41.1
2018-05-07T09:20:30.756Z,41.1
2018-05-07T09:21:21.324Z,41.1
2018-05-07T09:22:11.109Z,41.1
2018-05-07T09:23:01.437Z,41.1
2018-05-07T09:23:51.336Z,41.1
2018-05-07T09:24:41.915Z,41.1
2018-05-07T09:25:31.648Z,41.1
2018-05-07T09:26:21.784Z,41.1
2018-05-07T09:27:11.801Z,41.1
2018-05-07T09:28:00.999Z,41
2018-05-07T09:28:52.216Z,41
2018-05-07T09:29:42.256Z,41
2018-05-07T09:30:32.325Z,41
2018-05-07T09:31:22.398Z,41
2018-05-07T09:32:11.893Z,40.9
2018-05-07T09:33:02.521Z,41
2018-05-07T09:33:51.763Z,40.9
2018-05-07T09:34:42.667Z,40.9
2018-05-07T09:35:32.701Z,40.9
2018-05-07T09:36:22.766Z,40.9
2018-05-07T09:37:12.567Z,40.9
2018-05-07T09:38:02.618Z,40.9
2018-05-07T09:38:52.997Z,40.9
2018-05-07T09:39:43.024Z,40.9
2018-05-07T09:40:33.090Z,40.9
2018-05-07T09:41:23.187Z,40.9
2018-05-07T09:42:13.237Z,40.8
2018-05-07T09:43:03.165Z,40.8
2018-05-07T09:43:53.375Z,40.8
2018-05-07T09:44:43.141Z,40.8
2018-05-07T09:45:33.196Z,40.8
2018-05-07T09:46:23.267Z,40.8
2018-05-07T09:47:13.629Z,40.8
2018-05-07T09:48:03.412Z,40.8
2018-05-07T09:48:53.723Z,40.8
2018-05-07T09:49:43.838Z,40.8
2018-05-07T09:50:33.051Z,40.8
2018-05-07T09:51:23.962Z,40.8
2018-05-07T09:52:14.020Z,40.8
2018-05-07T09:53:04.094Z,40.8
2018-05-07T09:53:53.864Z,40.7
2018-05-07T09:54:43.939Z,40.7
2018-05-07T09:55:33.712Z,40.7
2018-05-07T09:56:24.327Z,40.7
2018-05-07T09:57:14.394Z,40.7
2018-05-07T09:58:04.498Z,40.7
2018-05-07T09:58:54.613Z,40.7
2018-05-07T09:59:44.600Z,40.7
2018-05-07T10:00:34.199Z,40.6
2018-05-07T10:01:24.736Z,40.6
2018-05-07T10:02:14.539Z,40.6
2018-05-07T10:03:04.877Z,40.6
2018-05-07T10:03:54.938Z,40.6
2018-05-07T10:04:44.996Z,40.6
2018-05-07T10:05:34.558Z,40.6
2018-05-07T10:06:24.948Z,40.6
2018-05-07T10:07:15.211Z,40.6
2018-05-07T10:08:04.699Z,40.6
2018-05-07T10:08:55.046Z,40.5
2018-05-07T10:09:45.415Z,40.5
2018-05-07T10:10:34.878Z,40.5
2018-05-07T10:11:24.969Z,40.5
2018-05-07T10:12:15.571Z,40.5
2018-05-07T10:13:05.366Z,40.5
2018-05-07T10:13:55.159Z,40.5
2018-05-07T10:14:45.778Z,40.5
2018-05-07T10:15:35.926Z,40.4
2018-05-07T10:16:25.658Z,40.4
2018-05-07T10:17:15.979Z,40.4
2018-05-07T10:18:05.784Z,40.4
2018-05-07T10:18:56.119Z,40.4
2018-05-07T10:19:45.630Z,40.4
2018-05-07T10:20:35.979Z,40.4
2018-05-07T10:21:26.323Z,40.4
2018-05-07T10:22:15.821Z,40.4
2018-05-07T10:23:06.436Z,40.4
2018-05-07T10:23:56.038Z,40.4
2018-05-07T10:24:46.294Z,40.3
2018-05-07T10:25:36.352Z,40.3
2018-05-07T10:26:26.700Z,40.3
2018-05-07T10:27:16.462Z,40.3
2018-05-07T10:28:04.901Z,40.3
2018-05-07T10:28:56.722Z,40.3
2018-05-07T10:29:46.264Z,40.3
2018-05-07T10:30:37.030Z,40.3
2018-05-07T10:31:27.108Z,40.3
2018-05-07T10:32:16.646Z,40.3
2018-05-07T10:33:06.941Z,40.3
2018-05-07T10:33:57.302Z,40.3
2018-05-07T10:34:47.387Z,40.2
2018-05-07T10:35:37.132Z,40.2
2018-05-07T10:36:27.014Z,40.2
2018-05-07T10:37:17.539Z,40.2
2018-05-07T10:38:07.346Z,40.2
2018-05-07T10:38:56.835Z,40.2
2018-05-07T10:39:47.456Z,40.1
2018-05-07T10:40:37.062Z,40.1
2018-05-07T10:41:27.031Z,40.1
2018-05-07T10:42:17.936Z,40.1
2018-05-07T10:43:07.439Z,40.1
2018-05-07T10:43:57.887Z,40.1
2018-05-07T10:44:48.129Z,40.1
2018-05-07T10:45:38.209Z,40.1
2018-05-07T10:46:28.301Z,40.1
2018-05-07T10:47:18.363Z,40.1
2018-05-07T10:48:08.405Z,40.1
2018-05-07T10:48:58.526Z,40.1
2018-05-07T10:49:48.548Z,40.1
2018-05-07T10:50:38.056Z,40.1
2018-05-07T10:51:28.107Z,40.1
2018-05-07T10:52:18.209Z,40
2018-05-07T10:53:08.817Z,40
2018-05-07T10:53:58.047Z,40
2018-05-07T10:54:48.933Z,40
2018-05-07T10:55:38.704Z,40
2018-05-07T10:56:28.780Z,40
2018-05-07T10:57:18.830Z,40
2018-05-07T10:58:09.176Z,40
2018-05-07T10:58:58.984Z,40
2018-05-07T10:59:49.055Z,39.9
2018-05-07T11:00:39.088Z,39.9
2018-05-07T11:01:29.182Z,39.9
2018-05-07T11:02:19.223Z,39.9
2018-05-07T11:03:09.011Z,39.9
2018-05-07T11:03:59.368Z,39.9
2018-05-07T11:04:49.428Z,39.9
2018-05-07T11:05:39.762Z,39.9
2018-05-07T11:06:29.830Z,39.9
2018-05-07T11:07:20.204Z,39.9
2018-05-07T11:08:09.980Z,39.9
2018-05-07T11:08:59.751Z,39.9
2018-05-07T11:09:50.126Z,39.9
2018-05-07T11:10:40.153Z,39.9
2018-05-07T11:11:30.226Z,39.9
2018-05-07T11:12:20.134Z,39.8
2018-05-07T11:13:10.347Z,39.8
2018-05-07T11:14:00.426Z,39.8
2018-05-07T11:14:50.271Z,39.8
2018-05-07T11:15:39.696Z,39.8
2018-05-07T11:16:30.082Z,39.8
2018-05-07T11:17:20.754Z,39.8
2018-05-07T11:18:10.471Z,39.8
2018-05-07T11:19:00.542Z,39.8
2018-05-07T11:19:51.677Z,39.8
2018-05-07T11:20:40.674Z,39.8
2018-05-07T11:21:31.002Z,39.8
2018-05-07T11:22:21.050Z,39.8
2018-05-07T11:23:11.143Z,39.8
2018-05-07T11:24:00.615Z,39.8
2018-05-07T11:24:51.292Z,39.8
2018-05-07T11:25:41.040Z,39.8
2018-05-07T11:26:31.377Z,39.7
2018-05-07T11:27:21.421Z,39.8
2018-05-07T11:28:11.233Z,39.8
2018-05-07T11:29:01.600Z,39.7
2018-05-07T11:29:51.650Z,39.7
2018-05-07T11:30:41.412Z,39.7
2018-05-07T11:31:31.850Z,39.7
2018-05-07T11:32:21.555Z,39.7
2018-05-07T11:33:11.893Z,39.7
2018-05-07T11:34:01.690Z,39.7
2018-05-07T11:34:52.123Z,39.6
2018-05-07T11:35:42.107Z,39.6
2018-05-07T11:36:32.178Z,39.6
2018-05-07T11:37:21.938Z,39.6
2018-05-07T11:38:12.035Z,39.6
2018-05-07T11:39:02.852Z,39.6
2018-05-07T11:39:52.452Z,39.6
2018-05-07T11:40:42.511Z,39.6
2018-05-07T11:41:32.303Z,39.6
2018-05-07T11:42:22.090Z,39.6
2018-05-07T11:43:12.124Z,39.6
2018-05-07T11:44:01.625Z,39.6
2018-05-07T11:44:51.515Z,39.6
2018-05-07T11:45:42.151Z,39.6
2018-05-07T11:46:32.392Z,39.6
2018-05-07T11:47:22.886Z,39.6
2018-05-07T11:48:13.066Z,39.6
2018-05-07T11:49:02.894Z,39.6
2018-05-07T11:49:53.233Z,39.6
2018-05-07T11:50:43.297Z,39.6
2018-05-07T11:51:33.359Z,39.6
2018-05-07T11:52:23.150Z,39.6
2018-05-07T11:53:14.134Z,39.6
2018-05-07T11:54:03.259Z,39.5
2018-05-07T11:54:53.336Z,39.6
2018-05-07T11:55:43.695Z,39.5
2018-05-07T11:56:32.974Z,39.5
2018-05-07T11:57:23.811Z,39.5
2018-05-07T11:58:13.321Z,39.5
2018-05-07T11:59:02.605Z,39.5
2018-05-07T11:59:54.002Z,39.5
2018-05-07T12:00:43.868Z,39.5
2018-05-07T12:01:34.176Z,39.4
2018-05-07T12:02:24.406Z,39.4
2018-05-07T12:03:13.793Z,39.4
2018-05-07T12:04:03.284Z,39.4
2018-05-07T12:04:54.127Z,39.4
2018-05-07T12:05:44.091Z,39.4
2018-05-07T12:06:34.541Z,39.4
2018-05-07T12:07:24.594Z,39.4
2018-05-07T12:08:14.092Z,39.4
2018-05-07T12:09:05.459Z,39.4
2018-05-07T12:09:54.255Z,39.4
2018-05-07T12:10:44.032Z,39.4
2018-05-07T12:11:34.710Z,39.4
2018-05-07T12:12:25.038Z,39.4
2018-05-07T12:13:13.921Z,39.4
2018-05-07T12:14:04.263Z,39.4
2018-05-07T12:14:54.867Z,39.3
2018-05-07T12:15:45.285Z,39.4
2018-05-07T12:16:35.302Z,39.3
2018-05-07T12:17:24.820Z,39.3
2018-05-07T12:18:15.409Z,39.3
2018-05-07T12:19:05.292Z,39.3
2018-05-07T12:19:55.270Z,39.3
2018-05-07T12:20:45.359Z,39.3
2018-05-07T12:21:35.679Z,39.3
2018-05-07T12:22:25.202Z,39.3
2018-05-07T12:23:16.475Z,39.3
2018-05-07T12:24:05.979Z,39.3
2018-05-07T12:24:55.364Z,39.3
2018-05-07T12:25:46.023Z,39.2
2018-05-07T12:26:35.247Z,39.2
2018-05-07T12:27:26.145Z,39.2
2018-05-07T12:28:16.002Z,39.2
2018-05-07T12:29:05.704Z,39.2
2018-05-07T12:29:56.355Z,39.2
2018-05-07T12:30:46.400Z,39.2
2018-05-07T12:31:37.128Z,39.2
2018-05-07T12:32:26.246Z,39.2
2018-05-07T12:33:16.033Z,39.2
2018-05-07T12:34:06.400Z,39.2
2018-05-07T12:34:55.901Z,39.2
2018-05-07T12:35:46.269Z,39.3
2018-05-07T12:36:36.899Z,39.3
2018-05-07T12:37:26.932Z,39.3
2018-05-07T12:38:16.456Z,39.3
2018-05-07T12:39:06.233Z,39.4
2018-05-07T12:39:57.174Z,39.4
2018-05-07T12:40:47.181Z,39.4
2018-05-07T12:41:37.256Z,39.4
2018-05-07T12:42:27.295Z,39.5
2018-05-07T12:43:16.833Z,39.5
2018-05-07T12:44:07.166Z,39.6
2018-05-07T12:44:56.975Z,39.6
2018-05-07T12:45:47.591Z,39.6
2018-05-07T12:46:37.400Z,39.6
2018-05-07T12:47:27.476Z,39.7
2018-05-07T12:48:17.767Z,39.7
2018-05-07T12:49:07.879Z,39.8
2018-05-07T12:49:57.733Z,39.8
2018-05-07T12:50:47.716Z,39.8
2018-05-07T12:51:37.774Z,39.8
2018-05-07T12:52:28.571Z,39.9
2018-05-07T12:53:17.631Z,39.9
2018-05-07T12:54:07.596Z,39.9
2018-05-07T12:54:58.047Z,39.9
2018-05-07T12:55:47.916Z,39.9
2018-05-07T12:56:38.454Z,40
2018-05-07T12:57:28.039Z,40
2018-05-07T12:58:18.099Z,40.1
2018-05-07T12:59:09.133Z,40.1
2018-05-07T12:59:57.598Z,40.1
2018-05-07T13:00:48.495Z,40.2
2018-05-07T13:01:38.865Z,40.2
2018-05-07T13:02:28.917Z,40.2
2018-05-07T13:03:18.691Z,40.2
2018-05-07T13:04:09.035Z,40.3
2018-05-07T13:04:58.826Z,40.3
2018-05-07T13:05:49.368Z,40.3
2018-05-07T13:06:38.958Z,40.3
2018-05-07T13:07:29.295Z,40.4
2018-05-07T13:08:18.816Z,40.4
2018-05-07T13:09:08.611Z,40.4
2018-05-07T13:09:59.518Z,40.4
2018-05-07T13:10:48.730Z,40.5
2018-05-07T13:11:40.088Z,40.5
2018-05-07T13:12:29.438Z,40.6
2018-05-07T13:13:19.223Z,40.6
2018-05-07T13:14:09.553Z,40.6
2018-05-07T13:14:59.602Z,40.7
2018-05-07T13:15:49.423Z,40.7
2018-05-07T13:16:39.730Z,40.8
2018-05-07T13:17:30.068Z,40.8
2018-05-07T13:18:20.006Z,40.8
2018-05-07T13:19:10.303Z,40.9
2018-05-07T13:20:00.275Z,40.9
2018-05-07T13:20:50.374Z,40.9
2018-05-07T13:21:40.417Z,41
2018-05-07T13:22:30.461Z,41
2018-05-07T13:23:20.531Z,41.1
2018-05-07T13:24:10.771Z,41.1
2018-05-07T13:25:00.744Z,41.1
2018-05-07T13:25:50.749Z,41.2
2018-05-07T13:26:40.516Z,41.3
2018-05-07T13:27:30.317Z,41.3
2018-05-07T13:28:20.401Z,41.3
2018-05-07T13:29:10.738Z,41.4
2018-05-07T13:30:00.778Z,41.4
2018-05-07T13:30:50.928Z,41.5
2018-05-07T13:31:41.207Z,41.5
2018-05-07T13:32:31.291Z,41.6
2018-05-07T13:33:21.133Z,41.6
2018-05-07T13:34:10.900Z,41.6
2018-05-07T13:35:01.226Z,41.7
2018-05-07T13:35:51.584Z,41.8
2018-05-07T13:36:41.329Z,41.8
2018-05-07T13:37:31.114Z,41.8
2018-05-07T13:38:21.197Z,41.9
2018-05-07T13:39:11.563Z,41.9
2018-05-07T13:40:01.596Z,41.9
2018-05-07T13:40:51.673Z,42
2018-05-07T13:41:42.018Z,42.1
2018-05-07T13:42:31.765Z,42.1
2018-05-07T13:43:21.576Z,42.1
2018-05-07T13:44:11.986Z,42.1
2018-05-07T13:45:02.267Z,42.2
2018-05-07T13:45:52.322Z,42.3
2018-05-07T13:46:42.385Z,42.3
2018-05-07T13:47:32.480Z,42.3
2018-05-07T13:48:22.548Z,42.4
2018-05-07T13:49:12.330Z,42.4
2018-05-07T13:50:02.380Z,42.4
2018-05-07T13:50:52.197Z,42.5
2018-05-07T13:51:42.780Z,42.5
2018-05-07T13:52:32.845Z,42.6
2018-05-07T13:53:22.910Z,42.6
2018-05-07T13:54:12.975Z,42.6
2018-05-07T13:55:02.808Z,42.7
2018-05-07T13:55:52.608Z,42.7
2018-05-07T13:56:43.178Z,42.8
2018-05-07T13:57:32.978Z,42.8
2018-05-07T13:58:23.338Z,42.8
2018-05-07T13:59:13.111Z,42.8
2018-05-07T14:00:03.454Z,42.8
2018-05-07T14:00:53.557Z,42.9
2018-05-07T14:01:43.599Z,42.9
2018-05-07T14:02:33.869Z,42.9
2018-05-07T14:03:23.433Z,43
2018-05-07T14:04:13.793Z,43
2018-05-07T14:05:03.852Z,43.1
2018-05-07T14:05:53.896Z,43.1
2018-05-07T14:06:43.424Z,43.1
2018-05-07T14:07:33.761Z,43.1
2018-05-07T14:08:24.350Z,43.1
2018-05-07T14:09:14.194Z,43.2
2018-05-07T14:10:03.722Z,43.2
2018-05-07T14:10:54.032Z,43.2
2018-05-07T14:11:44.081Z,43.3
2018-05-07T14:12:34.484Z,43.3
2018-05-07T14:13:24.266Z,43.3
2018-05-07T14:14:13.994Z,43.3
2018-05-07T14:15:04.388Z,43.3
2018-05-07T14:15:54.130Z,43.4
2018-05-07T14:16:45.269Z,43.4
2018-05-07T14:17:34.567Z,43.4
2018-05-07T14:18:24.896Z,43.4
2018-05-07T14:19:14.747Z,43.4
2018-05-07T14:20:04.782Z,43.4
2018-05-07T14:20:55.112Z,43.4
2018-05-07T14:21:45.184Z,43.4
2018-05-07T14:22:34.696Z,43.4
2018-05-07T14:23:25.302Z,43.5
2018-05-07T14:24:15.397Z,43.5
2018-05-07T14:25:05.214Z,43.5
2018-05-07T14:25:55.555Z,43.5
2018-05-07T14:26:45.558Z,43.5
2018-05-07T14:27:35.641Z,43.5
2018-05-07T14:28:25.435Z,43.6
2018-05-07T14:29:15.510Z,43.6
2018-05-07T14:30:05.845Z,43.6
2018-05-07T14:30:55.362Z,43.6
2018-05-07T14:31:45.726Z,43.6
2018-05-07T14:32:35.770Z,43.6
2018-05-07T14:33:26.050Z,43.6
2018-05-07T14:34:15.413Z,43.6
2018-05-07T14:35:06.254Z,43.6
2018-05-07T14:35:56.038Z,43.6
2018-05-07T14:36:46.092Z,43.6
2018-05-07T14:37:36.405Z,43.7
2018-05-07T14:38:26.495Z,43.7
2018-05-07T14:39:16.278Z,43.7
2018-05-07T14:40:06.652Z,43.7
2018-05-07T14:40:56.737Z,43.7
2018-05-07T14:41:44.547Z,43.7
2018-05-07T14:42:34.907Z,43.7
2018-05-07T14:43:24.685Z,43.7
2018-05-07T14:44:15.047Z,43.7
2018-05-07T14:45:05.106Z,43.7
2018-05-07T14:45:54.885Z,43.7
2018-05-07T14:46:44.949Z,43.7
2018-05-07T14:47:35.005Z,43.7
2018-05-07T14:48:25.354Z,43.7
2018-05-07T14:49:15.427Z,43.7
2018-05-07T14:50:05.206Z,43.8
2018-05-07T14:50:55.567Z,43.7
2018-05-07T14:51:45.348Z,43.7
2018-05-07T14:52:35.701Z,43.7
2018-05-07T14:53:25.498Z,43.8
2018-05-07T14:54:15.526Z,43.7
2018-05-07T14:55:05.885Z,43.8
2018-05-07T14:55:56.393Z,43.8
2018-05-07T14:56:46.020Z,43.7
2018-05-07T14:57:36.078Z,43.7
2018-05-07T14:58:25.600Z,43.7
2018-05-07T14:59:15.940Z,43.7
2018-05-07T15:00:06.285Z,43.7
2018-05-07T15:00:56.360Z,43.7
2018-05-07T15:01:45.857Z,43.7
2018-05-07T15:02:36.472Z,43.7
2018-05-07T15:03:26.545Z,43.7
2018-05-07T15:04:16.603Z,43.7
2018-05-07T15:05:06.687Z,43.7
2018-05-07T15:05:56.739Z,43.7
2018-05-07T15:06:46.809Z,43.7
2018-05-07T15:07:36.889Z,43.7
2018-05-07T15:08:26.935Z,43.7
2018-05-07T15:09:17.014Z,43.7
2018-05-07T15:10:06.816Z,43.7
2018-05-07T15:10:59.081Z,43.7
2018-05-07T15:11:48.566Z,43.7
2018-05-07T15:12:39.203Z,43.7
2018-05-07T15:13:28.981Z,43.7
2018-05-07T15:14:19.324Z,43.6
2018-05-07T15:15:09.101Z,43.7
2018-05-07T15:15:59.447Z,43.7
2018-05-07T15:16:49.535Z,43.7
2018-05-07T15:17:39.330Z,43.7
2018-05-07T15:18:29.663Z,43.6
2018-05-07T15:19:19.187Z,43.6
2018-05-07T15:20:09.803Z,43.7
2018-05-07T15:20:59.021Z,43.7
2018-05-07T15:21:49.642Z,43.7
2018-05-07T15:22:39.709Z,43.6
2018-05-07T15:23:30.544Z,43.7
2018-05-07T15:24:19.841Z,43.6
2018-05-07T15:25:09.616Z,43.6
2018-05-07T15:26:00.271Z,43.6
2018-05-07T15:26:49.494Z,43.6
2018-05-07T15:27:40.112Z,43.6
2018-05-07T15:28:30.197Z,43.6
2018-05-07T15:29:21.038Z,43.6
2018-05-07T15:30:10.591Z,43.6
2018-05-07T15:31:00.374Z,43.6
2018-05-07T15:31:50.739Z,43.6
2018-05-07T15:32:40.534Z,43.6
2018-05-07T15:33:30.013Z,43.6
2018-05-07T15:34:20.931Z,43.6
2018-05-07T15:35:11.003Z,43.6
2018-05-07T15:36:00.783Z,43.6
2018-05-07T15:36:50.861Z,43.6
2018-05-07T15:37:41.173Z,43.6
2018-05-07T15:38:30.688Z,43.6
2018-05-07T15:39:21.343Z,43.6
2018-05-07T15:40:11.121Z,43.6
2018-05-07T15:41:01.189Z,43.6
2018-05-07T15:41:51.231Z,43.6
2018-05-07T15:42:39.886Z,43.6
2018-05-07T15:43:31.392Z,43.6
2018-05-07T15:44:20.879Z,43.6
2018-05-07T15:45:11.805Z,43.6
2018-05-07T15:46:01.561Z,43.6
2018-05-07T15:46:51.928Z,43.6
2018-05-07T15:47:41.703Z,43.6
2018-05-07T15:48:32.080Z,43.6
2018-05-07T15:49:22.751Z,43.6
2018-05-07T15:50:11.623Z,43.6
2018-05-07T15:51:01.678Z,43.6
2018-05-07T15:51:52.046Z,43.6
2018-05-07T15:52:42.352Z,43.6
2018-05-07T15:53:32.414Z,43.6
2018-05-07T15:54:22.244Z,43.6
2018-05-07T15:55:12.551Z,43.6
2018-05-07T15:56:03.501Z,43.5
2018-05-07T15:56:52.716Z,43.6
2018-05-07T15:57:42.220Z,43.5
2018-05-07T15:58:32.869Z,43.6
2018-05-07T15:59:22.916Z,43.6
2018-05-07T16:00:12.421Z,43.5
2018-05-07T16:01:02.748Z,43.5
2018-05-07T16:01:53.089Z,43.5
2018-05-07T16:02:43.690Z,43.6
2018-05-07T16:03:32.936Z,43.6
2018-05-07T16:04:23.014Z,43.6
2018-05-07T16:05:12.792Z,43.5
2018-05-07T16:06:03.167Z,43.5
2018-05-07T16:06:53.507Z,43.5
2018-05-07T16:07:43.032Z,43.5
2018-05-07T16:08:33.681Z,43.5
2018-05-07T16:09:23.431Z,43.5
2018-05-07T16:10:13.732Z,43.5
2018-05-07T16:11:03.842Z,43.5
2018-05-07T16:11:53.957Z,43.5
2018-05-07T16:12:43.999Z,43.5
2018-05-07T16:13:34.001Z,43.5
2018-05-07T16:14:23.498Z,43.5
2018-05-07T16:15:14.541Z,43.5
2018-05-07T16:16:03.950Z,43.5
2018-05-07T16:16:54.367Z,43.5
2018-05-07T16:17:44.305Z,43.5
2018-05-07T16:18:34.636Z,43.4
2018-05-07T16:19:24.203Z,43.4
2018-05-07T16:20:13.988Z,43.5
2018-05-07T16:21:04.340Z,43.4
2018-05-07T16:21:55.105Z,43.4
2018-05-07T16:22:44.751Z,43.4
2018-05-07T16:23:36.573Z,43.4
2018-05-07T16:24:24.565Z,43.4
2018-05-07T16:25:14.389Z,43.4
2018-05-07T16:26:05.012Z,43.4
2018-05-07T16:26:54.787Z,43.4
2018-05-07T16:27:45.151Z,43.4
2018-05-07T16:28:35.178Z,43.4
2018-05-07T16:29:24.977Z,43.4